YDUM weather

Dumbleyung Airport
Western Australia, Australia

Public forecast

Using degrees Celsius for public forecast. Weather courtesy of forecast.io.

Closest aviation weather report (METAR) to Dumbleyung Airport

Closest report is Albany Airport, 96.7 nm (179.1 km) S. Retrieved 2020/01/29 10:00 UTC (37 minutes ago):

YABA 291000Z AUTO 20010KT 9999 // SCT023 SCT026 BKN033 23/17 Q1005

Closest aviation forecast (TAF) to Dumbleyung Airport

Forecast is more than 6 hours old.

Closest forecast is Perth Jandakot Airport, 120.1 nm (222.4 km) NW. Retrieved 2020-01-29 00:00 UTC (11 hours ago):

TAF YPJT 282238Z 2900/2918 18008KT CAVOK FM290200 24012KT CAVOK FM291200 23008KT 9999 SCT025 FM291500 25008KT 9999 -SHRA SCT020 BKN030 INTER 2916/2918 4000 SHRA BKN012